createdAt,value
2023-05-02T00:00:56.506Z,43.40
2023-05-02T00:02:29.423Z,43.71
2023-05-02T00:02:56.596Z,42.55
2023-05-02T00:03:56.585Z,50.85
2023-05-02T00:04:57.480Z,46.36
2023-05-02T00:05:56.475Z,42.50
2023-05-02T00:06:56.529Z,42.47
2023-05-02T00:07:56.445Z,42.38
2023-05-02T00:08:56.490Z,42.31
2023-05-02T00:09:56.440Z,42.29
2023-05-02T00:10:56.420Z,42.45
2023-05-02T00:11:56.453Z,42.27
2023-05-02T00:12:56.406Z,42.28
2023-05-02T00:13:56.469Z,42.27
2023-05-02T00:14:56.438Z,48.14
2023-05-02T00:15:56.366Z,42.88
2023-05-02T00:16:57.292Z,49.03
2023-05-02T00:17:56.502Z,42.40
2023-05-02T00:18:56.385Z,42.34
2023-05-02T00:19:56.357Z,42.59
2023-05-02T00:20:56.364Z,45.65
2023-05-02T00:21:56.345Z,42.28
2023-05-02T00:22:56.344Z,42.29
2023-05-02T00:23:56.337Z,42.27
2023-05-02T00:24:56.882Z,42.54
2023-05-02T00:25:56.321Z,48.81
2023-05-02T00:26:56.341Z,42.89
2023-05-02T00:27:56.312Z,48.39
2023-05-02T00:28:56.361Z,42.84
2023-05-02T00:29:56.261Z,42.55
2023-05-02T00:30:56.305Z,42.35
2023-05-02T00:31:56.884Z,49.00
2023-05-02T00:32:56.418Z,44.05
2023-05-02T00:33:56.240Z,46.98
2023-05-02T00:34:56.232Z,49.31
2023-05-02T00:35:56.276Z,42.47
2023-05-02T00:36:56.228Z,42.70
2023-05-02T00:37:56.357Z,42.78
2023-05-02T00:38:56.216Z,49.51
2023-05-02T00:39:56.212Z,43.14
2023-05-02T00:40:56.224Z,43.06
2023-05-02T00:41:56.202Z,43.41
2023-05-02T00:42:56.161Z,42.82
2023-05-02T00:43:56.169Z,54.05
2023-05-02T00:44:56.188Z,42.96
2023-05-02T00:45:56.153Z,43.32
2023-05-02T00:46:56.220Z,42.79
2023-05-02T00:47:56.169Z,42.84
2023-05-02T00:48:56.150Z,42.82
2023-05-02T00:49:56.169Z,43.35
2023-05-02T00:50:56.109Z,50.04
2023-05-02T00:51:56.438Z,44.30
2023-05-02T00:52:56.114Z,48.41
2023-05-02T00:53:56.125Z,45.53
2023-05-02T00:54:56.223Z,55.96
2023-05-02T00:55:56.058Z,49.61
2023-05-02T00:56:56.058Z,50.48
2023-05-02T00:57:56.051Z,42.80
2023-05-02T00:58:56.066Z,44.15
2023-05-02T00:59:56.983Z,57.54
2023-05-02T01:00:56.058Z,46.00
2023-05-02T01:01:56.063Z,42.83
2023-05-02T01:02:56.123Z,42.67
2023-05-02T01:03:56.134Z,45.39
2023-05-02T01:04:56.060Z,51.51
2023-05-02T01:05:56.002Z,49.95
2023-05-02T01:06:55.989Z,42.65
2023-05-02T01:07:55.984Z,42.42
2023-05-02T01:08:55.978Z,42.35
2023-05-02T01:09:55.999Z,42.41
2023-05-02T01:10:55.968Z,42.44
2023-05-02T01:11:55.954Z,42.68
2023-05-02T01:12:55.962Z,42.69
2023-05-02T01:13:55.951Z,42.80
2023-05-02T01:14:55.973Z,42.72
2023-05-02T01:15:55.940Z,48.03
2023-05-02T01:16:55.921Z,44.09
2023-05-02T01:17:55.918Z,42.49
2023-05-02T01:18:55.903Z,42.60
2023-05-02T01:19:55.918Z,42.99
2023-05-02T01:20:55.910Z,48.71
2023-05-02T01:21:55.876Z,42.87
2023-05-02T01:22:55.872Z,42.86
2023-05-02T01:23:55.854Z,47.84
2023-05-02T01:24:55.835Z,48.43
2023-05-02T01:25:55.867Z,42.61
2023-05-02T01:26:55.855Z,42.45
2023-05-02T01:27:55.858Z,42.60
2023-05-02T01:28:55.821Z,42.74
2023-05-02T01:29:55.801Z,42.91
2023-05-02T01:30:55.832Z,42.53
2023-05-02T01:31:55.814Z,49.38
2023-05-02T01:32:55.912Z,42.75
2023-05-02T01:33:55.792Z,42.80
2023-05-02T01:34:55.763Z,42.58
2023-05-02T01:35:55.793Z,48.02
2023-05-02T01:36:55.820Z,50.66
2023-05-02T01:37:55.761Z,43.97
2023-05-02T01:38:55.776Z,42.85
2023-05-02T01:39:55.748Z,43.28
2023-05-02T01:40:55.740Z,44.64
2023-05-02T01:41:56.761Z,46.17
2023-05-02T01:42:55.741Z,42.57
2023-05-02T01:43:55.765Z,43.35
2023-05-02T01:44:55.705Z,42.88
2023-05-02T01:45:55.692Z,49.06
2023-05-02T01:46:55.774Z,42.64
2023-05-02T01:47:55.697Z,42.47
2023-05-02T01:48:55.697Z,42.54
2023-05-02T01:49:55.660Z,43.64
2023-05-02T01:50:55.668Z,51.31
2023-05-02T01:51:55.662Z,52.74
2023-05-02T01:52:55.704Z,57.37
2023-05-02T01:53:55.620Z,49.78
2023-05-02T01:54:55.640Z,42.40
2023-05-02T01:55:55.614Z,42.65
2023-05-02T01:56:55.619Z,48.41
2023-05-02T01:57:55.654Z,42.55
2023-05-02T01:58:55.592Z,43.67
2023-05-02T01:59:55.601Z,55.11
2023-05-02T02:00:55.611Z,60.16
2023-05-02T02:01:55.572Z,48.24
2023-05-02T02:02:55.609Z,43.51
2023-05-02T02:03:55.609Z,46.92
2023-05-02T02:04:55.547Z,42.83
2023-05-02T02:05:55.538Z,50.29
2023-05-02T02:06:55.546Z,42.88
2023-05-02T02:07:55.546Z,42.98
2023-05-02T02:08:55.518Z,42.62
2023-05-02T02:09:55.500Z,48.29
2023-05-02T02:10:55.498Z,42.51
2023-05-02T02:11:55.501Z,42.98
2023-05-02T02:12:55.512Z,49.06
2023-05-02T02:13:55.500Z,51.97
2023-05-02T02:14:55.467Z,42.92
2023-05-02T02:15:55.464Z,50.51
2023-05-02T02:16:55.552Z,54.04
2023-05-02T02:17:55.494Z,44.16
2023-05-02T02:18:55.450Z,48.07
2023-05-02T02:19:55.441Z,43.01
2023-05-02T02:20:55.438Z,48.64
2023-05-02T02:21:55.438Z,43.66
2023-05-02T02:22:56.395Z,43.34
2023-05-02T02:23:55.399Z,54.83
2023-05-02T02:24:55.420Z,43.28
2023-05-02T02:25:55.384Z,49.15
2023-05-02T02:26:55.353Z,49.85
2023-05-02T02:27:55.356Z,49.17
2023-05-02T02:28:55.351Z,48.16
2023-05-02T02:29:55.365Z,43.63
2023-05-02T02:30:55.400Z,43.54
2023-05-02T02:31:55.351Z,43.54
2023-05-02T02:32:55.352Z,53.10
2023-05-02T02:33:55.343Z,54.68
2023-05-02T02:34:55.347Z,43.09
2023-05-02T02:35:55.300Z,43.35
2023-05-02T02:36:55.317Z,56.81
2023-05-02T02:37:55.282Z,51.10
2023-05-02T02:38:55.259Z,44.00
2023-05-02T02:39:55.279Z,43.41
2023-05-02T02:40:55.263Z,43.28
2023-05-02T02:41:55.371Z,43.64
2023-05-02T02:42:55.246Z,54.81
2023-05-02T02:43:55.231Z,60.64
2023-05-02T02:44:55.228Z,57.52
2023-05-02T02:45:55.268Z,50.71
2023-05-02T02:46:55.238Z,57.96
2023-05-02T02:47:55.313Z,63.82
2023-05-02T02:48:55.221Z,51.97
2023-05-02T02:49:55.196Z,53.96
2023-05-02T02:50:55.182Z,45.14
2023-05-02T02:51:55.191Z,45.38
2023-05-02T02:52:55.186Z,57.85
2023-05-02T02:53:55.154Z,54.69
2023-05-02T02:54:55.162Z,48.87
2023-05-02T02:55:55.133Z,51.20
2023-05-02T02:56:55.151Z,56.40
2023-05-02T02:57:56.200Z,53.87
2023-05-02T02:58:55.147Z,51.17
2023-05-02T02:59:55.120Z,55.63
2023-05-02T03:00:55.121Z,52.79
2023-05-02T03:01:55.155Z,59.32
2023-05-02T03:02:55.127Z,62.30
2023-05-02T03:03:55.212Z,59.42
2023-05-02T03:04:55.068Z,61.32
2023-05-02T03:05:55.058Z,59.78
2023-05-02T03:06:55.120Z,61.25
2023-05-02T03:07:55.045Z,54.83
2023-05-02T03:08:55.054Z,58.49
2023-05-02T03:09:55.035Z,58.07
2023-05-02T03:10:55.049Z,49.87
2023-05-02T03:11:55.016Z,56.01
2023-05-02T03:12:55.024Z,58.79
2023-05-02T03:13:54.999Z,65.13
2023-05-02T03:14:54.996Z,56.23
2023-05-02T03:15:55.030Z,57.79
2023-05-02T03:16:54.984Z,53.96
2023-05-02T03:17:55.077Z,61.03
2023-05-02T03:18:54.946Z,61.17
2023-05-02T03:19:54.949Z,62.17
2023-05-02T03:20:54.974Z,64.25
2023-05-02T03:21:55.899Z,58.68
2023-05-02T03:22:55.892Z,66.32
2023-05-02T03:23:54.900Z,66.46
2023-05-02T03:24:54.909Z,56.06
2023-05-02T03:25:54.960Z,55.33
2023-05-02T03:26:54.892Z,62.73
2023-05-02T03:27:54.875Z,62.27
2023-05-02T03:28:54.878Z,65.47
2023-05-02T03:29:54.862Z,59.51
2023-05-02T03:30:54.885Z,69.37
2023-05-02T03:31:54.890Z,54.39
2023-05-02T03:32:55.431Z,60.21
2023-05-02T03:33:54.825Z,63.51
2023-05-02T03:34:54.824Z,66.93
2023-05-02T03:35:54.827Z,67.61
2023-05-02T03:36:54.843Z,56.60
2023-05-02T03:37:54.853Z,64.05
2023-05-02T03:38:55.400Z,65.15
2023-05-02T03:39:54.795Z,68.05
2023-05-02T03:40:55.309Z,66.49
2023-05-02T03:41:54.783Z,66.04
2023-05-02T03:42:54.972Z,63.99
2023-05-02T03:43:54.793Z,65.31
2023-05-02T03:44:54.765Z,62.91
2023-05-02T03:45:55.390Z,64.90
2023-05-02T03:46:55.425Z,67.99
2023-05-02T04:03:35.233Z,66.44
2023-05-02T04:04:35.269Z,61.44
2023-05-02T04:05:35.188Z,69.34
2023-05-02T04:06:37.335Z,64.48
2023-05-02T04:07:36.355Z,68.34
2023-05-02T04:08:36.294Z,69.12
2023-05-02T04:09:36.338Z,69.92
2023-05-02T04:10:36.286Z,64.06
2023-05-02T04:11:36.275Z,65.57
2023-05-02T04:12:36.268Z,66.52
2023-05-02T04:13:36.265Z,59.75
2023-05-02T04:14:36.288Z,65.87
2023-05-02T04:15:36.258Z,66.94
2023-05-02T04:16:36.427Z,64.17
2023-05-02T04:17:36.311Z,62.92
2023-05-02T04:18:36.223Z,60.12
2023-05-02T04:19:36.225Z,67.49
2023-05-02T04:20:36.212Z,66.39
2023-05-02T04:21:36.250Z,60.79
2023-05-02T04:22:36.198Z,63.90
2023-05-02T04:23:36.201Z,66.82
2023-05-02T04:24:36.216Z,65.94
2023-05-02T04:25:36.189Z,65.88
2023-05-02T04:26:36.196Z,69.29
2023-05-02T04:27:36.178Z,66.48
2023-05-02T04:28:36.169Z,65.02
2023-05-02T04:29:36.146Z,71.40
2023-05-02T04:30:36.147Z,61.19
2023-05-02T04:31:36.196Z,60.38
2023-05-02T04:32:36.186Z,70.17
2023-05-02T04:33:36.135Z,65.91
2023-05-02T04:34:36.137Z,60.44
2023-05-02T04:35:36.151Z,63.73
2023-05-02T04:36:36.075Z,71.78
2023-05-02T04:37:36.110Z,64.52
2023-05-02T04:38:36.091Z,62.69
2023-05-02T04:39:36.077Z,66.85
2023-05-02T04:40:36.059Z,64.68
2023-05-02T04:41:36.060Z,69.18
2023-05-02T04:42:36.048Z,72.28
2023-05-02T04:43:36.068Z,71.90
2023-05-02T04:44:36.018Z,68.73
2023-05-02T04:45:36.007Z,68.90
2023-05-02T04:46:36.022Z,60.72
2023-05-02T04:47:36.096Z,70.99
2023-05-02T04:48:35.991Z,68.46
2023-05-02T04:49:36.098Z,69.91
2023-05-02T04:50:35.966Z,65.26
2023-05-02T04:51:35.989Z,66.86
2023-05-02T04:52:35.953Z,68.24
2023-05-02T04:53:35.960Z,64.30
2023-05-02T04:54:35.977Z,66.48
2023-05-02T04:55:35.958Z,66.81
2023-05-02T04:56:36.855Z,68.42
2023-05-02T04:57:35.928Z,59.15
2023-05-02T04:58:35.930Z,65.06
2023-05-02T04:59:35.937Z,69.63
2023-05-02T05:00:35.905Z,70.97
2023-05-02T05:01:35.916Z,71.06
2023-05-02T05:02:35.941Z,66.79
2023-05-02T05:03:35.970Z,69.63
2023-05-02T05:04:35.902Z,70.05
2023-05-02T05:05:35.918Z,70.26
2023-05-02T05:06:35.898Z,68.76
2023-05-02T05:07:35.883Z,61.54
2023-05-02T05:08:35.860Z,62.58
2023-05-02T05:09:35.860Z,69.22
2023-05-02T05:10:35.867Z,72.06
2023-05-02T05:11:35.860Z,71.67
2023-05-02T05:12:35.833Z,69.19
2023-05-02T05:13:36.436Z,70.57
2023-05-02T05:14:35.802Z,69.70
2023-05-02T05:15:35.797Z,65.70
2023-05-02T05:16:35.859Z,71.01
2023-05-02T05:17:35.828Z,72.07
2023-05-02T05:18:35.772Z,72.53
2023-05-02T05:19:35.772Z,67.77
2023-05-02T05:20:35.801Z,71.12
2023-05-02T05:21:35.738Z,69.20
2023-05-02T05:22:35.725Z,70.20
2023-05-02T05:23:35.753Z,68.88
2023-05-02T05:24:35.736Z,71.38
2023-05-02T05:25:35.721Z,69.42
2023-05-02T05:26:35.737Z,69.50
2023-05-02T05:27:35.689Z,68.28
2023-05-02T05:28:35.738Z,70.91
2023-05-02T05:29:35.696Z,69.66
2023-05-02T05:30:35.700Z,69.09
2023-05-02T05:31:35.710Z,70.32
2023-05-02T05:32:35.732Z,69.85
2023-05-02T05:33:35.707Z,66.74
2023-05-02T05:34:35.655Z,72.75
2023-05-02T05:35:35.634Z,70.51
2023-05-02T05:36:35.639Z,70.19
2023-05-02T05:37:35.649Z,69.02
2023-05-02T05:38:35.604Z,69.08
2023-05-02T05:39:35.605Z,71.42
2023-05-02T05:40:35.611Z,71.89
2023-05-02T05:41:35.605Z,71.98
2023-05-02T05:42:35.583Z,67.97
2023-05-02T05:43:37.354Z,69.51
2023-05-02T05:44:35.614Z,67.98
2023-05-02T05:45:35.545Z,72.12
2023-05-02T05:46:35.569Z,67.46
2023-05-02T05:47:35.724Z,65.86
2023-05-02T05:48:35.534Z,67.93
2023-05-02T05:49:35.978Z,69.33
2023-05-02T05:50:35.567Z,71.09
2023-05-02T05:51:35.511Z,69.66
2023-05-02T05:52:35.533Z,68.52
2023-05-02T05:53:35.559Z,68.01
2023-05-02T05:54:35.489Z,71.34
2023-05-02T05:55:37.344Z,73.62
2023-05-02T05:56:36.475Z,69.18
2023-05-02T05:57:35.600Z,71.69
2023-05-02T05:58:35.465Z,68.24
2023-05-02T05:59:35.487Z,66.07
2023-05-02T06:00:35.472Z,69.07
2023-05-02T06:01:35.456Z,67.01
2023-05-02T06:02:36.335Z,70.58
2023-05-02T06:03:36.222Z,70.65
2023-05-02T06:04:35.448Z,67.20
2023-05-02T06:05:35.434Z,67.80
2023-05-02T06:06:35.442Z,64.44
2023-05-02T06:07:35.390Z,66.41
2023-05-02T06:08:35.413Z,70.27
2023-05-02T06:09:35.386Z,70.69
2023-05-02T06:10:35.422Z,67.97
2023-05-02T06:11:35.379Z,70.62
2023-05-02T06:12:35.382Z,63.25
2023-05-02T06:13:35.375Z,65.55
2023-05-02T06:14:35.338Z,73.66
2023-05-02T06:15:35.328Z,67.22
2023-05-02T06:16:35.537Z,64.53
2023-05-02T06:17:35.327Z,68.00
2023-05-02T06:18:35.332Z,65.92
2023-05-02T06:19:35.307Z,67.41
2023-05-02T06:20:35.313Z,68.61
2023-05-02T06:21:35.298Z,70.81
2023-05-02T06:22:35.299Z,66.20
2023-05-02T06:23:35.268Z,71.29
2023-05-02T06:24:35.290Z,67.86
2023-05-02T06:25:35.250Z,68.14
2023-05-02T06:26:35.288Z,69.10
2023-05-02T06:27:35.237Z,64.34
2023-05-02T06:28:35.236Z,68.77
2023-05-02T06:29:35.216Z,69.45
2023-05-02T06:30:35.251Z,67.03
2023-05-02T06:31:35.274Z,63.74
2023-05-02T06:32:35.241Z,68.67
2023-05-02T06:33:36.193Z,57.06
2023-05-02T06:34:35.203Z,69.92
2023-05-02T06:35:35.193Z,67.57
2023-05-02T06:36:35.145Z,70.58
2023-05-02T06:37:35.159Z,67.84
2023-05-02T06:38:35.150Z,66.59
2023-05-02T06:39:35.125Z,70.29
2023-05-02T06:40:35.135Z,61.29
2023-05-02T06:41:35.124Z,65.98
2023-05-02T06:42:35.146Z,71.15
2023-05-02T06:43:35.095Z,68.31
2023-05-02T06:44:35.096Z,66.13
2023-05-02T06:45:35.104Z,65.55
2023-05-02T06:46:35.149Z,65.51
2023-05-02T06:47:35.097Z,62.90
2023-05-02T06:48:35.066Z,69.13
2023-05-02T06:49:35.071Z,67.04
2023-05-02T06:50:35.944Z,70.11
2023-05-02T06:51:35.087Z,64.76
2023-05-02T06:52:35.936Z,67.67
2023-05-02T06:53:35.028Z,64.51
2023-05-02T06:54:35.021Z,59.56
2023-05-02T06:55:35.015Z,66.90
2023-05-02T06:56:35.021Z,59.80
2023-05-02T06:57:35.026Z,63.19
2023-05-02T06:58:34.986Z,68.76
2023-05-02T06:59:34.972Z,59.38
2023-05-02T07:00:35.051Z,61.12
2023-05-02T07:01:35.041Z,67.67
2023-05-02T07:02:34.986Z,68.67
2023-05-02T07:03:34.960Z,65.49
2023-05-02T07:04:34.989Z,67.14
2023-05-02T07:05:34.945Z,70.01
2023-05-02T07:06:34.993Z,70.02
2023-05-02T07:07:34.947Z,66.92
2023-05-02T07:08:34.930Z,64.18
2023-05-02T07:09:35.800Z,63.06
2023-05-02T07:10:34.900Z,67.54
2023-05-02T07:11:34.888Z,71.18
2023-05-02T07:12:34.889Z,66.76
2023-05-02T07:13:35.064Z,63.85
2023-05-02T07:14:35.468Z,69.18
2023-05-02T07:15:34.837Z,67.17
2023-05-02T07:16:34.887Z,65.24
2023-05-02T07:17:34.894Z,70.92
2023-05-02T07:18:34.876Z,69.73
2023-05-02T07:19:34.831Z,71.75
2023-05-02T07:20:34.810Z,63.37
2023-05-02T07:21:34.796Z,66.05
2023-05-02T07:22:34.789Z,67.73
2023-05-02T07:23:34.796Z,63.48
2023-05-02T07:24:34.810Z,63.06
2023-05-02T07:25:34.762Z,62.46
2023-05-02T07:26:34.767Z,71.55
2023-05-02T07:27:34.755Z,66.97
2023-05-02T07:28:34.737Z,66.36
2023-05-02T07:29:34.797Z,68.78
2023-05-02T07:30:34.750Z,68.06
2023-05-02T07:31:34.758Z,65.57
2023-05-02T07:32:34.832Z,66.18
2023-05-02T07:33:34.764Z,66.12
2023-05-02T07:34:34.738Z,66.06
2023-05-02T07:35:34.683Z,62.00
2023-05-02T07:36:34.703Z,69.35
2023-05-02T07:37:34.765Z,62.34
2023-05-02T07:38:34.692Z,66.83
2023-05-02T07:39:34.701Z,67.03
2023-05-02T07:40:34.694Z,60.96
2023-05-02T07:41:34.667Z,67.24
2023-05-02T07:42:35.656Z,59.57
2023-05-02T07:43:34.639Z,60.08
2023-05-02T07:44:34.644Z,69.76
2023-05-02T07:45:34.635Z,66.96
2023-05-02T07:46:34.737Z,68.79
2023-05-02T07:47:34.617Z,67.97
2023-05-02T07:48:35.469Z,67.09
2023-05-02T07:49:34.640Z,61.36
2023-05-02T07:50:34.580Z,61.92
2023-05-02T07:51:34.584Z,65.36
2023-05-02T07:52:34.590Z,68.58
2023-05-02T07:53:34.581Z,63.30
2023-05-02T07:54:34.561Z,68.67
2023-05-02T07:55:34.551Z,68.17
2023-05-02T07:56:34.533Z,63.27
2023-05-02T07:57:34.577Z,63.81
2023-05-02T07:58:34.570Z,68.17
2023-05-02T07:59:34.500Z,68.02
2023-05-02T08:00:34.531Z,70.96
2023-05-02T08:01:34.491Z,67.24
2023-05-02T08:02:34.514Z,62.44
2023-05-02T08:03:34.901Z,67.86
2023-05-02T08:04:34.557Z,61.73
2023-05-02T08:05:34.483Z,65.80
2023-05-02T08:06:34.526Z,60.65
2023-05-02T08:07:34.440Z,61.57
2023-05-02T08:08:34.477Z,59.20
2023-05-02T08:09:34.455Z,65.60
2023-05-02T08:10:34.462Z,65.73
2023-05-02T08:11:34.433Z,65.81
2023-05-02T08:12:34.420Z,67.95
2023-05-02T08:13:34.487Z,67.20
2023-05-02T08:14:34.407Z,65.21
2023-05-02T08:15:34.401Z,68.68
2023-05-02T08:16:34.546Z,67.74
2023-05-02T08:17:34.429Z,63.05
2023-05-02T08:18:34.401Z,65.62
2023-05-02T08:19:34.386Z,67.57
2023-05-02T08:20:34.368Z,64.35
2023-05-02T08:22:06.286Z,65.92
2023-05-02T08:22:34.360Z,64.33
2023-05-02T08:23:34.325Z,65.52
2023-05-02T08:24:34.343Z,62.22
2023-05-02T08:25:34.335Z,65.24
2023-05-02T08:26:34.310Z,68.64
2023-05-02T08:27:34.294Z,62.51
2023-05-02T08:28:34.328Z,65.80
2023-05-02T08:29:34.314Z,60.67
2023-05-02T08:30:34.282Z,64.08
2023-05-02T08:31:34.295Z,66.45
2023-05-02T08:32:34.322Z,67.14
2023-05-02T08:33:34.249Z,64.69
2023-05-02T08:34:34.273Z,62.49
2023-05-02T08:35:34.250Z,65.62
2023-05-02T08:36:34.228Z,69.15
2023-05-02T08:37:34.217Z,66.74
2023-05-02T08:38:34.278Z,65.31
2023-05-02T08:39:34.229Z,60.72
2023-05-02T08:40:41.442Z,68.60
2023-05-02T08:41:36.229Z,66.15
2023-05-02T08:42:34.192Z,65.82
2023-05-02T08:43:34.169Z,63.56
2023-05-02T08:44:35.007Z,65.52
2023-05-02T08:45:34.183Z,65.17
2023-05-02T08:46:34.253Z,61.85
2023-05-02T08:47:34.208Z,64.81
2023-05-02T08:48:34.133Z,61.87
2023-05-02T08:49:34.136Z,67.46
2023-05-02T08:50:34.143Z,70.19
2023-05-02T08:51:34.199Z,65.13
2023-05-02T08:52:34.124Z,67.44
2023-05-02T08:53:34.224Z,66.03
2023-05-02T08:54:34.098Z,65.66
2023-05-02T08:55:34.082Z,67.14
2023-05-02T08:56:34.120Z,62.34
2023-05-02T08:57:34.092Z,68.26
2023-05-02T08:58:34.077Z,64.95
2023-05-02T08:59:34.058Z,64.29
2023-05-02T09:00:34.068Z,67.25
2023-05-02T09:01:34.169Z,62.99
2023-05-02T09:02:34.104Z,70.90
2023-05-02T09:03:34.029Z,63.20
2023-05-02T09:04:34.079Z,66.31
2023-05-02T09:05:34.004Z,63.87
2023-05-02T09:06:34.025Z,61.15
2023-05-02T09:07:34.018Z,65.70
2023-05-02T09:08:34.542Z,65.45
2023-05-02T09:09:34.000Z,68.88
2023-05-02T09:10:33.957Z,69.55
2023-05-02T09:11:33.963Z,62.12
2023-05-02T09:12:33.975Z,58.24
2023-05-02T09:13:33.932Z,67.56
2023-05-02T09:14:33.993Z,63.56
2023-05-02T09:15:33.949Z,65.38
2023-05-02T09:16:33.949Z,66.54
2023-05-02T09:17:34.035Z,68.13
2023-05-02T09:18:33.925Z,64.62
2023-05-02T09:19:33.881Z,66.63
2023-05-02T09:20:33.894Z,65.84
2023-05-02T09:21:33.890Z,65.93
2023-05-02T09:22:33.878Z,69.11
2023-05-02T09:23:33.868Z,64.17
2023-05-02T09:24:33.887Z,61.10
2023-05-02T09:25:33.862Z,66.34
2023-05-02T09:26:33.894Z,56.71
2023-05-02T09:27:33.828Z,67.15
2023-05-02T09:28:33.849Z,66.74
2023-05-02T09:29:33.855Z,63.62
2023-05-02T09:30:33.838Z,66.46
2023-05-02T09:31:54.404Z,67.83
2023-05-02T09:32:35.824Z,63.03
2023-05-02T09:33:33.824Z,59.57
2023-05-02T09:34:33.838Z,65.65
2023-05-02T09:35:33.791Z,55.97
2023-05-02T09:36:33.804Z,61.17
2023-05-02T09:37:33.877Z,66.25
2023-05-02T09:38:33.799Z,64.38
2023-05-02T09:39:33.762Z,66.52
2023-05-02T09:40:33.740Z,64.53
2023-05-02T09:41:33.770Z,64.39
2023-05-02T09:42:33.726Z,68.56
2023-05-02T09:43:33.765Z,62.84
2023-05-02T09:44:34.568Z,67.10
2023-05-02T09:45:33.700Z,58.52
2023-05-02T09:46:33.809Z,67.38
2023-05-02T09:47:33.750Z,65.78
2023-05-02T09:48:33.696Z,61.75
2023-05-02T09:49:33.686Z,65.08
2023-05-02T09:50:34.746Z,60.47
2023-05-02T09:51:33.673Z,66.32
2023-05-02T09:52:33.698Z,67.31
2023-05-02T09:53:33.645Z,65.60
2023-05-02T09:54:33.640Z,61.54
2023-05-02T09:55:33.682Z,63.22
2023-05-02T09:56:33.613Z,66.25
2023-05-02T09:57:33.622Z,67.01
2023-05-02T09:58:33.626Z,65.81
2023-05-02T09:59:33.606Z,67.94
2023-05-02T10:00:33.611Z,67.44
2023-05-02T10:01:33.607Z,65.03
2023-05-02T10:02:33.892Z,66.25
2023-05-02T10:03:33.612Z,51.59
2023-05-02T10:04:33.642Z,62.42
2023-05-02T10:05:33.556Z,67.90
2023-05-02T10:06:33.607Z,64.96
2023-05-02T10:07:33.532Z,66.52
2023-05-02T10:08:33.570Z,66.93
2023-05-02T10:09:33.515Z,68.95
2023-05-02T10:10:33.547Z,62.24
2023-05-02T10:11:33.525Z,68.45
2023-05-02T10:12:33.543Z,64.35
2023-05-02T10:13:33.497Z,67.43
2023-05-02T10:14:33.476Z,69.18
2023-05-02T10:15:33.500Z,65.43
2023-05-02T10:16:33.594Z,65.07
2023-05-02T10:17:33.578Z,62.99
2023-05-02T10:18:33.477Z,66.23
2023-05-02T10:19:33.448Z,65.51
2023-05-02T10:20:33.450Z,64.60
2023-05-02T10:21:33.461Z,65.67
2023-05-02T10:22:33.463Z,64.66
2023-05-02T10:23:33.413Z,60.83
2023-05-02T10:24:33.429Z,66.27
2023-05-02T10:25:33.429Z,65.11
2023-05-02T10:26:33.428Z,64.89
2023-05-02T10:27:33.434Z,63.26
2023-05-02T10:28:33.418Z,64.27
2023-05-02T10:29:33.434Z,63.74
2023-05-02T10:30:33.416Z,64.99
2023-05-02T10:31:33.401Z,64.56
2023-05-02T10:32:33.421Z,66.95
2023-05-02T10:33:33.395Z,65.12
2023-05-02T10:34:33.348Z,64.36
2023-05-02T10:35:33.404Z,61.26
2023-05-02T10:36:33.356Z,67.51
2023-05-02T10:37:33.318Z,64.17
2023-05-02T10:38:33.314Z,63.44
2023-05-02T10:39:33.321Z,63.20
2023-05-02T10:40:33.300Z,66.62
2023-05-02T10:41:33.320Z,60.46
2023-05-02T10:42:33.266Z,66.06
2023-05-02T10:43:33.253Z,67.55
2023-05-02T10:44:33.237Z,63.14
2023-05-02T10:45:33.267Z,60.25
2023-05-02T10:46:33.331Z,65.74
2023-05-02T10:47:33.266Z,61.46
2023-05-02T10:48:33.227Z,67.04
2023-05-02T10:49:33.207Z,61.21
2023-05-02T10:50:33.196Z,65.20
2023-05-02T10:51:33.212Z,63.44
2023-05-02T10:52:33.251Z,66.37
2023-05-02T10:53:33.199Z,64.82
2023-05-02T10:54:33.172Z,67.30
2023-05-02T10:55:33.173Z,65.26
2023-05-02T10:56:33.176Z,65.60
2023-05-02T10:57:33.133Z,62.50
2023-05-02T10:58:33.127Z,66.41
2023-05-02T10:59:33.170Z,66.27
2023-05-02T11:00:33.167Z,63.62
2023-05-02T11:01:33.207Z,65.15
2023-05-02T11:02:33.122Z,64.32
2023-05-02T11:03:33.217Z,66.23
2023-05-02T11:04:33.128Z,67.62
2023-05-02T11:05:33.096Z,69.52
2023-05-02T11:06:33.109Z,67.76
2023-05-02T11:07:33.066Z,68.76
2023-05-02T11:08:33.140Z,66.58
2023-05-02T11:09:33.093Z,65.32
2023-05-02T11:10:33.049Z,70.21
2023-05-02T11:11:33.050Z,71.43
2023-05-02T11:12:33.029Z,68.16
2023-05-02T11:13:33.030Z,69.64
2023-05-02T11:14:33.031Z,67.59
2023-05-02T11:15:33.027Z,66.79
2023-05-02T11:16:33.576Z,66.70
2023-05-02T11:17:33.023Z,67.99
2023-05-02T11:18:33.056Z,61.68
2023-05-02T11:19:33.501Z,63.02
2023-05-02T11:20:32.969Z,68.78
2023-05-02T11:21:33.561Z,67.44
2023-05-02T11:22:33.558Z,64.33
2023-05-02T11:23:32.944Z,68.08
2023-05-02T11:24:32.942Z,64.42
2023-05-02T11:25:32.973Z,67.98
2023-05-02T11:26:32.959Z,65.59
2023-05-02T11:27:32.922Z,69.22
2023-05-02T11:28:32.935Z,66.20
2023-05-02T11:29:32.907Z,61.83
2023-05-02T11:30:32.920Z,66.20
2023-05-02T11:31:32.976Z,68.26
2023-05-02T11:32:33.009Z,67.47
2023-05-02T11:33:32.870Z,64.86
2023-05-02T11:34:32.857Z,59.36
2023-05-02T11:35:32.866Z,69.20
2023-05-02T11:36:33.970Z,63.79
2023-05-02T11:37:32.830Z,66.98
2023-05-02T11:38:32.807Z,69.16
2023-05-02T11:39:32.817Z,64.41
2023-05-02T11:40:32.833Z,69.35
2023-05-02T11:41:32.905Z,64.72
2023-05-02T11:42:32.780Z,68.62
2023-05-02T11:43:32.955Z,67.90
2023-05-02T11:44:32.776Z,63.54
2023-05-02T11:45:32.769Z,71.25
2023-05-02T11:46:32.855Z,70.08
2023-05-02T11:47:32.782Z,70.61
2023-05-02T11:48:33.124Z,66.84
2023-05-02T11:49:32.749Z,70.44
2023-05-02T11:50:32.739Z,73.85
2023-05-02T11:51:32.747Z,69.95
2023-05-02T11:52:32.747Z,65.50
2023-05-02T11:53:33.468Z,60.44
2023-05-02T11:54:32.727Z,67.05
2023-05-02T11:55:32.780Z,68.42
2023-05-02T11:56:32.692Z,67.90
2023-05-02T11:57:32.714Z,67.40
2023-05-02T11:58:32.987Z,66.06
2023-05-02T11:59:32.657Z,66.01
2023-05-02T12:00:32.672Z,71.89
2023-05-02T12:01:32.653Z,69.73
2023-05-02T12:02:32.693Z,70.02
2023-05-02T12:03:32.962Z,66.39
2023-05-02T12:04:32.638Z,72.51
2023-05-02T12:05:32.683Z,69.71
2023-05-02T12:06:32.660Z,69.00
2023-05-02T12:07:32.665Z,69.39
2023-05-02T12:08:32.598Z,71.95
2023-05-02T12:09:32.614Z,71.40
2023-05-02T12:10:32.613Z,67.78
2023-05-02T12:11:32.593Z,72.57
2023-05-02T12:12:33.560Z,67.15
2023-05-02T12:13:32.593Z,68.76
2023-05-02T12:14:32.598Z,69.28
2023-05-02T12:15:33.501Z,69.16
2023-05-02T12:16:32.564Z,70.53
2023-05-02T12:17:32.601Z,66.11
2023-05-02T12:18:32.616Z,71.99
2023-05-02T12:19:32.543Z,70.19
2023-05-02T12:20:32.585Z,68.93
2023-05-02T12:21:32.591Z,71.82
2023-05-02T12:22:32.515Z,69.45
2023-05-02T12:23:32.882Z,58.69
2023-05-02T12:24:32.518Z,69.67
2023-05-02T12:25:32.462Z,65.07
2023-05-02T12:26:32.457Z,71.40
2023-05-02T12:27:32.496Z,69.13
2023-05-02T12:28:32.442Z,68.06
2023-05-02T12:29:32.483Z,67.27
2023-05-02T12:30:32.541Z,69.19
2023-05-02T12:31:32.518Z,67.29
2023-05-02T12:32:32.489Z,71.55
2023-05-02T12:33:32.988Z,68.98
2023-05-02T12:34:33.452Z,67.84
2023-05-02T12:35:32.420Z,70.71
2023-05-02T12:36:32.390Z,67.49
2023-05-02T12:37:32.373Z,66.24
2023-05-02T12:38:32.360Z,68.35
2023-05-02T12:39:32.337Z,68.06
2023-05-02T12:40:32.337Z,70.37
2023-05-02T12:41:32.368Z,66.56
2023-05-02T12:42:32.331Z,67.73
2023-05-02T12:43:32.340Z,70.19
2023-05-02T12:44:32.319Z,66.42
2023-05-02T12:45:32.351Z,69.76
2023-05-02T12:46:32.877Z,66.91
2023-05-02T12:47:32.348Z,69.62
2023-05-02T12:48:32.287Z,64.50
2023-05-02T12:49:32.277Z,70.68
2023-05-02T12:50:33.161Z,64.71
2023-05-02T12:51:32.251Z,68.53
2023-05-02T12:52:32.298Z,67.86
2023-05-02T12:53:32.259Z,66.99
2023-05-02T12:54:32.218Z,64.99
2023-05-02T12:55:32.298Z,67.98
2023-05-02T12:56:32.488Z,67.00
2023-05-02T12:57:32.238Z,66.32
2023-05-02T12:58:32.202Z,67.31
2023-05-02T12:59:32.178Z,64.80
2023-05-02T13:00:32.261Z,70.37
2023-05-02T13:01:32.319Z,65.30
2023-05-02T13:02:33.139Z,71.81
2023-05-02T13:03:32.221Z,65.65
2023-05-02T13:04:32.159Z,69.75
2023-05-02T13:05:32.173Z,65.42
2023-05-02T13:06:32.178Z,69.09
2023-05-02T13:07:32.181Z,66.42
2023-05-02T13:08:32.160Z,69.53